Overview Statistics Trail Chart Weather Telemetry Raw packets
 

This is the latest recevied weather packets stored in our database for station/object WX0ABE-13. If no packets are shown the sender has not sent any weather packets the latest 10 day(s).

<< 19 20 21 22 23 24 25 >>
Time Temp. Humidity Pressure Rain* Wind** Luminosity Snow
1788229198 26.11° C 39% 1016.6 hPa 0 mm - 0 W/m² -
1788228894 26.11° C 41% 1016.5 hPa 0 mm - 0 W/m² -
1788228589 26.67° C 40% 1016.4 hPa 0 mm - 0 W/m² -
1788228285 26.67° C 40% 1016.5 hPa 0 mm - 0 W/m² -
1788227983 27.22° C 39% 1016.3 hPa 0 mm - 0 W/m² -
1788227680 27.22° C 38% 1016.5 hPa 0 mm - 0 W/m² -
1788227379 27.22° C 38% 1016.7 hPa 0 mm - 0 W/m² -
1788227076 27.78° C 38% 1016.5 hPa 0 mm - 0 W/m² -
1788226771 27.78° C 37% 1016.4 hPa 0 mm - 0 W/m² -
1788226466 27.78° C 38% 1016.5 hPa 0 mm - 1 W/m² -
1788226162 27.78° C 38% 1016.5 hPa 0 mm - 1 W/m² -
1788225856 28.33° C 39% 1016.5 hPa 0 mm - 2 W/m² -
1788225552 28.33° C 39% 1016.4 hPa 0 mm - 4 W/m² -
1788225248 27.22° C 41% 1016.4 hPa 0 mm - 5 W/m² -
1788224946 27.78° C 41% 1016.3 hPa 0 mm - 7 W/m² -
1788224641 27.78° C 42% 1016.4 hPa 0 mm - 10 W/m² -
1788224340 27.78° C 43% 1016.4 hPa 0 mm - 8 W/m² -
1788224035 28.33° C 42% 1016.4 hPa 0 mm - 9 W/m² -
1788223730 28.89° C 39% 1016.7 hPa 0 mm - 10 W/m² -
1788223429 29.44° C 34% 1016.6 hPa 0 mm - 13 W/m² -
1788223124 30° C 33% 1016.6 hPa 0 mm - 15 W/m² -
1788222819 30° C 31% 1016.5 hPa 0 mm - 22 W/m² -
1788222518 30° C 31% 1016.5 hPa 0 mm - 28 W/m² -
1788222217 29.44° C 32% 1016.4 hPa 0 mm - 31 W/m² -
1788221912 28.89° C 34% 1016.6 hPa 0 mm - 37 W/m² -

* Rain latest hour (hover to see other rain measurements)
** Current wind speed in m/s (hover to see current wind gust speed)